Terminal Aerodrome Forecast
Issued by NWS Blacksburg, VA

Home | Current Version | Previous Version | Text Only | Print | Product List | Glossary On
Versions: 1 2 3 4 5 6 7 8 9 10 11 12 13 14 15 16 17 18 19 20 21 22 23 24 25 26 27 28 29 30 31 32 33 34 35 36 37 38 39 40 41 42
218
FTUS41 KRNK 262115 AAB
TAFLYH
TAF AMD
KLYH 262115Z 2621/2718 19008KT P6SM OVC017
     FM262200 15007KT P6SM VCSH BKN025 OVC050
     FM270200 18006KT 5SM SHRA OVC015
     FM270900 27004KT 3SM BR OVC007
     FM271500 07002KT 4SM -RA BR SCT008 OVC015=

USA.gov is the U.S. government's official web portal to all federal, state and local government web resources and services.